Wastedo, Minnesota
Current Conditions -  °F | °C
As of 1:54 PM on Wednesday 17 Dec 2014 (Local Time) from KSYN Reporting Station
Scattered Clouds Scattered Clouds  
Wind Chill: -12°   Ceiling: Unl
Heat Index: -7°   Visibility: 10mi
Dew Point: -11°   Wind: 8mph
Humidity: 72%   Direction: 330°NNW
Pressure: 30.27"   Gusts: NA
Location:  44.4763°N, 92.8054°W
Report Text: KSYN 171954Z AUTO 33007KT 10SM SCT015 M07/M11 A3027 RMK AO2 T10661109
Loading
Personal Weather Stations






























Interactive Weather Map New forecast layout! Learn more

10-Day Weather Forecast

Advertisements
Track Severe Weather on mobile